25 de setembro de 2022

Hora Código Clima Temp. Visibilidade Tecto Vento METAR/SPECI
09:00
L
10 °C 10 km+ 400 ft Var Var 3 kt METAR LFLW 250700Z AUTO VRB03KT 9999 BKN004/// OVC014/// ///TCU 10/10 Q1015 TEMPO 3000 -RA BECMG OVC006
08:30
M
10 °C 10 km+ 1.500 ft Var Var 3 kt METAR LFLW 250630Z AUTO VRB03KT 9999 BKN015 OVC025 10/10 Q1015 TEMPO 3000 -RA BECMG OVC006
08:00
M
10 °C 10 km+ 1.400 ft Var Var 3 kt METAR LFLW 250600Z AUTO VRB03KT 9999 FEW007/// BKN014/// OVC024/// ///TCU 10/10 Q1014 TEMPO 3000 -RA OVC003
07:30
M
10 °C 10 km+ 1.700 ft 240° 240° 3 kt METAR LFLW 250530Z AUTO 24003KT 9999 FEW003/// SCT010/// BKN017/// ///TCU 10/10 Q1014 TEMPO 3000 -RA OVC003
07:00
L
10 °C 10 km+ 400 ft 220° 220° 3 kt METAR LFLW 250500Z AUTO 22003KT 190V250 9999 OVC004/// ///TCU 10/10 Q1014
06:30
I
10 °C 10 km+ 600 ft Var Var 2 kt METAR LFLW 250430Z AUTO VRB02KT 9999 -RADZ BKN006/// BKN010/// OVC048/// ///TCU 10/10 Q1014
06:00
M
10 °C 6 km 1.200 ft Var Var 2 kt METAR LFLW 250400Z AUTO VRB02KT 6000 -RA FEW002/// BKN012/// BKN030/// ///CB 10/10 Q1014
05:30
I
10 °C 3,6 km 1.800 ft Var Var 2 kt METAR LFLW 250330Z AUTO VRB02KT 3600 +RA BR BKN018/// BKN030/// BKN038/// ///CB 10/10 Q1014
05:00
M
10 °C 5 km 3.300 ft 080° 080° 3 kt METAR LFLW 250300Z AUTO 08003KT 5000 RA BR FEW027/// BKN033/// BKN042/// ///CB 10/10 Q1014
04:30
V
10 °C 10 km+ 4.400 ft Var Var 2 kt METAR LFLW 250230Z AUTO VRB02KT 9999 -RA FEW025/// SCT032/// BKN044/// ///TCU 10/10 Q1014
04:00
V
10 °C 10 km+ 4.900 ft Var Var 1 kt METAR LFLW 250200Z AUTO VRB01KT 9999 -RA FEW032/// BKN049/// OVC056/// ///TCU 10/09 Q1014
03:30
V
10 °C 8 km 5.000 ft 140° 140° 3 kt METAR LFLW 250130Z AUTO 14003KT 8000 FEW001 SCT030 OVC050 10/09 Q1014
03:00
M
9 °C 7 km 2.700 ft 190° 190° 2 kt METAR LFLW 250100Z AUTO 19002KT 7000 SCT013 OVC027 09/09 Q1015
02:30
L
9 °C 1 km 1.400 ft Var 000° 0 kt METAR LFLW 250030Z AUTO 00000KT 7000 1000 R15/P2000 BKN014 OVC033 09/09 Q1015
02:00
M
10 °C 10 km+ 2.300 ft 080° 080° 2 kt METAR LFLW 250000Z AUTO 08002KT 9999 FEW017 BKN023 BKN058 10/10 Q1014
01:30
M
10 °C 10 km+ 1.800 ft 160° 160° 1 kt METAR LFLW 242330Z AUTO 16001KT 9999 BKN018/// OVC060/// ///TCU 10/10 Q1015
01:00
M
10 °C 10 km+ 1.800 ft Var Var 1 kt METAR LFLW 242300Z AUTO VRB01KT 9999 FEW007/// BKN018/// BKN028/// ///TCU 10/10 Q1015
00:30
V
11 °C 10 km+ 3.200 ft Var Var 2 kt METAR LFLW 242230Z AUTO VRB02KT 9999 SCT018/// BKN032/// BKN039/// ///CB 11/10 Q1015
00:00
V
11 °C 10 km+ - Var 000° 0 kt METAR LFLW 242200Z AUTO 00000KT 9999 -RA ///CB 11/10 Q1015

24 de setembro de 2022

Hora Código Clima Temp. Visibilidade Tecto Vento METAR/SPECI
23:30
V
11 °C 10 km+ - Var Var 1 kt METAR LFLW 242130Z AUTO VRB01KT 9999 ///CB 11/10 Q1015
23:00
V
11 °C 10 km+ 5.600 ft Var Var 3 kt METAR LFLW 242100Z AUTO VRB03KT 9999 FEW047/// OVC056/// ///CB 11/10 Q1015
22:30
M
11 °C 6 km 5.000 ft Var 000° 0 kt METAR LFLW 242030Z AUTO 00000KT 6000 RA FEW025/// BKN050/// OVC060/// ///CB 11/10 Q1015
22:00
V
11 °C 10 km+ 4.700 ft Var Var 2 kt METAR LFLW 242000Z AUTO VRB02KT 9999 FEW031/// BKN047/// BKN054/// ///CB 11/10 Q1015
21:30
V
11 °C 10 km+ 6.400 ft Var Var 2 kt METAR LFLW 241930Z AUTO VRB02KT 9999 -RA SCT042/// SCT052/// OVC064/// ///CB 11/10 Q1015
21:00
M
11 °C 10 km+ 2.300 ft 020° 020° 5 kt METAR LFLW 241900Z AUTO 02005KT 9999 BKN023/// BKN029/// BKN035/// ///CB 11/10 Q1014
20:30
V
11 °C 10 km+ 4.200 ft 030° 030° 6 kt METAR LFLW 241830Z AUTO 03006KT 320V060 9999 FEW011/// SCT018/// BKN042/// ///CB 11/11 Q1015
20:00
V
12 °C 10 km+ 6.200 ft Var Var 2 kt METAR LFLW 241800Z AUTO VRB02KT 9999 -RA FEW050/// BKN062/// OVC074/// ///CB 12/11 Q1014
19:30
V
12 °C 10 km+ 7.800 ft Var 000° 0 kt METAR LFLW 241730Z AUTO 00000KT 9999 -RA FEW026/// SCT064/// OVC078/// ///CB 12/11 Q1014
19:00
V
12 °C 10 km+ 5.800 ft Var Var 3 kt METAR LFLW 241700Z AUTO VRB03KT 9999 -RA FEW018/// SCT044/// OVC058/// ///CB 12/10 Q1014 TEMPO 4000 SHRA
18:30
V
13 °C 9 km 3.000 ft 230° 230° 4 kt METAR LFLW 241630Z AUTO 23004KT 200V270 9000 RA FEW017/// BKN030/// BKN041/// ///CB 13/11 Q1014 TEMPO 4000 SHRA
18:00
V
15 °C 10 km+ 3.200 ft 220° 220° 7 kt METAR LFLW 241600Z AUTO 22007KT 140V260 9999 -RA VCTS FEW025/// BKN032/// BKN049/// ///CB 15/10 Q1013 TEMPO 4000 SHRA
17:30
V
16 °C 10 km+ 4.900 ft 210° 210° 6 kt METAR LFLW 241530Z AUTO 21006KT 170V260 9999 SCT032/// BKN049/// BKN062/// ///CB 16/09 Q1013 TEMPO 4000 SHRA
17:00
V
16 °C 10 km+ 3.100 ft 220° 220° 4 kt METAR LFLW 241500Z AUTO 22004KT 170V290 9999 BKN031 BKN068 OVC084 16/09 Q1013 TEMPO 4000 SHRA BKN025CB
16:30
V
16 °C 10 km+ 3.200 ft 270° 270° 4 kt METAR LFLW 241430Z AUTO 27004KT 230V320 9999 BKN032/// BKN040/// OVC074/// ///CB 16/09 Q1014 TEMPO 4000 SHRA
16:00
V
16 °C 10 km+ 3.300 ft 230° 230° 4 kt METAR LFLW 241400Z AUTO 23004KT 190V290 9999 BKN033 BKN039 BKN052 16/09 Q1014 TEMPO 4000 SHRA BKN025CB
15:30
V
16 °C 10 km+ 3.100 ft 350° 350° 4 kt METAR LFLW 241330Z AUTO 35004KT 270V020 9999 BKN031 OVC040 16/09 Q1014 TEMPO 4000 SHRA BKN025CB
15:00
V
17 °C 10 km+ 4.700 ft 290° 290° 5 kt METAR LFLW 241300Z AUTO 29005KT 250V330 9999 SCT030 BKN047 BKN060 17/09 Q1014 TEMPO 4000 SHRA BKN025CB
14:30
V
16 °C 10 km+ 3.000 ft 250° 250° 5 kt METAR LFLW 241230Z AUTO 25005KT 180V310 9999 BKN030 BKN040 BKN047 16/09 Q1015 TEMPO 4000 SHRA BKN025CB
14:00
V
17 °C 10 km+ 4.500 ft 240° 240° 4 kt METAR LFLW 241200Z AUTO 24004KT 210V290 9999 FEW032 BKN045 BKN056 17/09 Q1015 TEMPO 4000 SHRA BKN025TCU
13:30
V
17 °C 10 km+ 4.200 ft Var Var 2 kt METAR LFLW 241130Z AUTO VRB02KT 9999 SCT033 BKN042 17/08 Q1015 TEMPO 4000 SHRA BKN025TCU
13:00
M
16 °C 10 km+ 2.300 ft 310° 310° 4 kt METAR LFLW 241100Z AUTO 31004KT 220V010 9999 BKN023 BKN032 BKN240 16/10 Q1015 TEMPO 4000 SHRA BKN025TCU
12:30
M
16 °C 10 km+ 2.300 ft Var Var 3 kt METAR LFLW 241030Z AUTO VRB03KT 9999 FEW014 BKN023 BKN240 16/10 Q1015 TEMPO 4000 SHRA BKN025TCU
12:00
M
15 °C 10 km+ 2.400 ft Var Var 3 kt METAR LFLW 241000Z AUTO VRB03KT 9999 FEW014 OVC024 15/11 Q1015 BECMG SCT020 SCT030TCU
11:30
M
14 °C 10 km+ 2.400 ft Var Var 2 kt METAR LFLW 240930Z AUTO VRB02KT 9999 FEW013 SCT018 BKN024 14/11 Q1015 BECMG SCT020 SCT030TCU
11:00
V
14 °C 10 km+ - Var Var 2 kt METAR LFLW 240900Z AUTO VRB02KT 9999 SCT008 14/11 Q1015 BECMG SCT020 SCT030TCU
10:30
I
12 °C 10 km+ 700 ft Var Var 2 kt METAR LFLW 240830Z AUTO VRB02KT 9999 OVC007 12/11 Q1016 BECMG BKN011 FEW020TCU
10:00
L
11 °C 10 km+ 400 ft 080° 080° 3 kt METAR LFLW 240800Z AUTO 08003KT 030V140 9999 OVC004 11/11 Q1015 BECMG BKN011 FEW020TCU
09:30
L
11 °C 9 km 300 ft 080° 080° 3 kt METAR LFLW 240730Z AUTO 08003KT 9000 OVC003 11/10 Q1015 BECMG BKN011 FEW020TCU
09:00
L
10 °C 8 km 200 ft 070° 070° 3 kt METAR LFLW 240700Z AUTO 07003KT 8000 OVC002 10/10 Q1015 TEMPO 2000 BR BECMG OVC006
08:30
L
10 °C 10 km+ 300 ft Var Var 2 kt METAR LFLW 240630Z AUTO VRB02KT 9999 OVC003 10/10 Q1015 TEMPO 2000 BR BECMG OVC006
08:00
L
10 °C 10 km+ 400 ft 100° 100° 3 kt METAR LFLW 240600Z AUTO 10003KT 080V140 9999 OVC004 10/09 Q1015 TEMPO 2000 BR
07:30
I
10 °C 10 km+ 600 ft Var Var 2 kt METAR LFLW 240530Z AUTO VRB02KT 9999 OVC006 10/10 Q1015 TEMPO 2000 BR OVC002
07:00
I
9 °C 9 km 600 ft Var Var 2 kt METAR LFLW 240500Z AUTO VRB02KT 9000 BKN006 OVC031 09/09 Q1015
06:30
I
10 °C 8 km 600 ft Var Var 2 kt METAR LFLW 240430Z AUTO VRB02KT 8000 OVC006 10/10 Q1015
06:00
L
10 °C 1,1 km 600 ft Var Var 2 kt METAR LFLW 240400Z AUTO VRB02KT 1700 1100 R15/1800D BR OVC006 10/10 Q1015
05:30
I
10 °C 9 km 800 ft 050° 050° 4 kt METAR LFLW 240330Z AUTO 05004KT 9000 OVC008 10/10 Q1015
05:00
M
10 °C 10 km+ 1.200 ft Var Var 2 kt METAR LFLW 240300Z AUTO VRB02KT 9999 SCT003 OVC012 10/10 Q1015
04:30
I
10 °C 3,1 km 1.400 ft 100° 100° 3 kt METAR LFLW 240230Z AUTO 10003KT 3100 BR SCT002 OVC014 10/10 Q1015
04:00
L
10 °C 10 km+ 300 ft 080° 080° 4 kt METAR LFLW 240200Z AUTO 08004KT 9999 BKN003 OVC017 10/10 Q1016
03:30
L
10 °C 800 m 300 ft Var Var 2 kt METAR LFLW 240130Z AUTO VRB02KT 1100 0800 R15/1500U BCFG OVC003 10/10 Q1016
03:00
L
10 °C 2 km 100 ft 050° 050° 3 kt METAR LFLW 240100Z AUTO 05003KT 2000 R15/0800U BCFG BKN001 BKN008 BKN021 10/10 Q1016
02:30
L
10 °C 650 m 2.200 ft Var Var 1 kt METAR LFLW 240030Z AUTO VRB01KT 3000 0650 R15/P2000 BCFG FEW007 BKN022 10/10 Q1016
02:00
L
11 °C 450 m 1.000 ft Var Var 1 kt METAR LFLW 240000Z AUTO VRB01KT 0600 0450 R15/0650N FG BKN010 11/11 Q1016
01:30
M
12 °C 10 km+ 1.200 ft Var Var 1 kt METAR LFLW 232330Z AUTO VRB01KT 9999 OVC012 12/12 Q1017
01:00
V
12 °C 9 km 13.000 ft 160° 160° 2 kt METAR LFLW 232300Z AUTO 16002KT 9000 SCT010 BKN130 BKN150 12/11 Q1017
00:30
M
13 °C 10 km+ 1.200 ft Var Var 1 kt METAR LFLW 232230Z AUTO VRB01KT 9999 BKN012 OVC130 13/12 Q1018
00:00
M
13 °C 10 km+ 1.200 ft 260° 260° 2 kt METAR LFLW 232200Z AUTO 26002KT 9999 BKN012/// BKN076/// OVC088/// ///TCU 13/12 Q1017

23 de setembro de 2022

Hora Código Clima Temp. Visibilidade Tecto Vento METAR/SPECI
23:30
V
13 °C 10 km+ 7.400 ft Var Var 1 kt METAR LFLW 232130Z AUTO VRB01KT 9999 FEW011 BKN074 BKN088 13/12 Q1017
23:00
V
13 °C 10 km+ - Var 000° 0 kt METAR LFLW 232100Z AUTO 00000KT CAVOK 13/12 Q1017
22:30
V
13 °C 10 km+ - Var Var 2 kt METAR LFLW 232030Z AUTO VRB02KT CAVOK 13/12 Q1017
22:00
V
13 °C 10 km+ - 120° 120° 6 kt METAR LFLW 232000Z AUTO 12006KT 9999 ///TCU 13/12 Q1017
21:30
V
14 °C 8 km 8.000 ft 100° 100° 2 kt METAR LFLW 231930Z AUTO 10002KT 8000 RA FEW052/// OVC080/// ///TCU 14/12 Q1018
21:00
V
14 °C 10 km+ 7.400 ft Var Var 2 kt METAR LFLW 231900Z AUTO VRB02KT 9999 -RA SCT056/// OVC074/// ///CB 14/12 Q1018
20:30
V
15 °C 10 km+ 5.600 ft Var 000° 0 kt METAR LFLW 231830Z AUTO 00000KT 9999 -RA BKN056/// OVC078/// ///CB 15/12 Q1017
20:00
V
15 °C 10 km+ 6.400 ft 130° 130° 3 kt METAR LFLW 231800Z AUTO 13003KT 9999 -DZ FEW054/// BKN064/// BKN074/// ///CB 15/12 Q1017
19:30
V
16 °C 10 km+ - 080° 080° 5 kt METAR LFLW 231730Z AUTO 08005KT 9999 -RA ///CB 16/11 Q1016
19:00
V
17 °C 10 km+ 5.600 ft Var Var 3 kt METAR LFLW 231700Z AUTO VRB03KT 9999 -RA BKN056/// OVC092/// ///CB 17/10 Q1017 TEMPO TSRA
18:30
V
17 °C 10 km+ - 340° 340° 6 kt METAR LFLW 231630Z AUTO 34006KT 300V360 9999 ///CB 17/11 Q1016 TEMPO TSRA
18:00
V
20 °C 10 km+ 10.000 ft 270° 270° 10 kt METAR LFLW 231600Z AUTO 27010KT 240V320 9999 SCT054/// SCT078/// OVC100/// ///CB 20/10 Q1016 TEMPO SHRA
17:30
V
21 °C 10 km+ - 250° 250° 7 kt METAR LFLW 231530Z AUTO 25007KT 210V270 9999 ///CB 21/10 Q1016 TEMPO SHRA
17:00
V
22 °C 10 km+ 11.000 ft 230° 230° 6 kt METAR LFLW 231500Z AUTO 23006KT 180V250 9999 FEW054 OVC110 22/10 Q1016 TEMPO SHRA SCT060TCU
16:30
V
22 °C 10 km+ 5.000 ft 210° 210° 6 kt METAR LFLW 231430Z AUTO 21006KT 140V260 9999 BKN050 BKN064 BKN100 22/09 Q1016 TEMPO SHRA SCT060TCU
16:00
V
22 °C 10 km+ 22.000 ft 200° 200° 5 kt METAR LFLW 231400Z AUTO 20005KT 150V260 9999 FEW048 SCT100 BKN220 22/10 Q1017 TEMPO SHRA SCT060TCU BKN100
15:30
V
22 °C 10 km+ 17.000 ft 200° 200° 5 kt METAR LFLW 231330Z AUTO 20005KT 160V240 9999 FEW050 BKN170 BKN190 22/10 Q1017 TEMPO SHRA SCT060TCU BKN100
15:00
V
22 °C 10 km+ 6.200 ft 200° 200° 6 kt METAR LFLW 231300Z AUTO 20006KT 140V250 9999 SCT048 BKN062 BKN230 22/10 Q1017 TEMPO SHRA SCT060TCU BKN100
14:30
V
22 °C 10 km+ 5.600 ft 210° 210° 6 kt METAR LFLW 231230Z AUTO 21006KT 150V270 9999 BKN056 BKN210 22/09 Q1018 TEMPO SHRA SCT060TCU BKN100
14:00
V
21 °C 10 km+ 22.000 ft 160° 160° 5 kt METAR LFLW 231200Z AUTO 16005KT 090V220 9999 SCT046 SCT054 BKN220 21/09 Q1018 NOSIG
13:30
V
22 °C 10 km+ - 190° 190° 6 kt METAR LFLW 231130Z AUTO 19006KT 140V260 CAVOK 22/10 Q1018 NOSIG
13:00
V
21 °C 10 km+ - 130° 130° 6 kt METAR LFLW 231100Z AUTO 13006KT 080V190 CAVOK 21/10 Q1018 NOSIG
12:30
V
20 °C 10 km+ - 150° 150° 5 kt METAR LFLW 231030Z AUTO 15005KT 080V230 CAVOK 20/11 Q1019 NOSIG
12:00
V
19 °C 10 km+ - 140° 140° 7 kt METAR LFLW 231000Z AUTO 14007KT 110V180 CAVOK 19/11 Q1019 NOSIG
11:30
V
19 °C 10 km+ - 120° 120° 6 kt METAR LFLW 230930Z AUTO 12006KT 060V180 CAVOK 19/11 Q1019 NOSIG
11:00
V
18 °C 10 km+ - 130° 130° 7 kt METAR LFLW 230900Z AUTO 13007KT 090V180 CAVOK 18/10 Q1019 NOSIG
10:30
V
17 °C 10 km+ - 120° 120° 6 kt METAR LFLW 230830Z AUTO 12006KT 080V150 CAVOK 17/09 Q1019 NOSIG
10:00
V
16 °C 10 km+ - 100° 100° 5 kt METAR LFLW 230800Z AUTO 10005KT 070V140 CAVOK 16/09 Q1019 NOSIG
09:30
V
14 °C 10 km+ - 090° 090° 7 kt METAR LFLW 230730Z AUTO 09007KT 9999 NSC 14/08 Q1019 NOSIG
09:00
V
11 °C 10 km+ - 080° 080° 8 kt METAR LFLW 230700Z AUTO 08008KT CAVOK 11/07 Q1019 NOSIG
08:30
V
9 °C 10 km+ - 090° 090° 8 kt METAR LFLW 230630Z AUTO 09008KT CAVOK 09/06 Q1019 NOSIG
08:00
V
8 °C 10 km+ - 100° 100° 5 kt METAR LFLW 230600Z AUTO 10005KT CAVOK 08/06 Q1019 NOSIG
07:30
V
8 °C 10 km+ - 090° 090° 6 kt METAR LFLW 230530Z AUTO 09006KT CAVOK 08/06 Q1019 NOSIG
07:00
V
8 °C 10 km+ - 100° 100° 4 kt METAR LFLW 230500Z AUTO 10004KT CAVOK 08/06 Q1019
Dados mais antigos

Nós e terceiros acompanhamos seu comportamento na internet em nosso site com cookies. Se você continuar, nós assumimos que você concorda com nossa política de cookies. Saiba mais